Time;durP1;ratioP1;P1;durP2;ratioP2;P2;SDS_P1;SDS_P2;PMS_P1;PMS_P2;Temp;Humidity;BMP_temperature;BMP_pressure;BME280_temperature;BME280_humidity;BME280_pressure;Samples;Min_cycle;Max_cycle;Signal;HPM_P1;HPM_P2
2022/09/10 00:00:00;;;;;;;0.30;0.30;;;14.90;99.90;;;;;;5015546;28;20477;-72
2022/09/10 00:02:26;;;;;;;0.30;0.30;;;;;;;;;;5015770;28;20637;-72
2022/09/10 00:04:52;;;;;;;2.10;1.90;;;14.70;99.90;;;;;;5014693;28;20171;-71
2022/09/10 00:07:18;;;;;;;0.30;0.30;;;;;;;;;;5015662;28;20503;-72
2022/09/10 00:09:44;;;;;;;0.67;0.57;;;14.90;99.90;;;;;;5015526;28;20582;-71
2022/09/10 00:12:10;;;;;;;0.30;0.30;;;14.90;99.90;;;;;;5015809;28;20909;-71
2022/09/10 00:14:35;;;;;;;0.47;0.47;;;15.00;99.90;;;;;;5015661;28;20438;-72
2022/09/10 00:17:02;;;;;;;0.30;0.30;;;;;;;;;;5015632;28;20176;-72
2022/09/10 00:19:30;;;;;;;0.30;0.30;;;15.10;99.90;;;;;;5015717;28;20664;-72
2022/09/10 00:21:56;;;;;;;0.50;0.50;;;;;;;;;;5015375;28;20414;-72
2022/09/10 00:24:22;;;;;;;0.30;0.30;;;14.80;99.90;;;;;;5015489;28;20872;-72
2022/09/10 00:26:47;;;;;;;0.50;0.50;;;15.20;99.90;;;;;;5015439;28;20469;-72
2022/09/10 00:29:16;;;;;;;0.30;0.30;;;14.70;99.90;;;;;;5015287;28;20419;-72
2022/09/10 00:31:42;;;;;;;0.40;0.40;;;15.30;99.90;;;;;;5015083;28;20183;-72
2022/09/10 00:34:08;;;;;;;0.30;0.30;;;;;;;;;;5014050;28;20478;-71
2022/09/10 00:36:39;;;;;;;0.40;0.40;;;15.30;99.90;;;;;;5015172;28;20411;-73
2022/09/10 00:39:07;;;;;;;0.40;0.40;;;15.20;99.90;;;;;;5015010;28;20458;-72
2022/09/10 00:41:35;;;;;;;0.30;0.30;;;14.90;99.90;;;;;;5014799;28;20411;-71
2022/09/10 00:44:24;;;;;;;0.30;0.30;;;15.00;99.90;;;;;;5015159;28;20416;-73
2022/09/10 00:46:51;;;;;;;0.40;0.40;;;14.80;99.90;;;;;;5015187;28;20407;-72
2022/09/10 00:49:25;;;;;;;0.97;0.90;;;15.10;99.90;;;;;;5015083;28;20969;-72
2022/09/10 00:51:52;;;;;;;0.50;0.50;;;14.90;99.90;;;;;;5014741;28;20410;-71
2022/09/10 00:54:20;;;;;;;0.50;0.50;;;14.80;99.90;;;;;;5014758;28;20431;-72
2022/09/10 00:56:48;;;;;;;0.30;0.30;;;14.80;99.90;;;;;;5014762;28;20407;-71
2022/09/10 00:59:17;;;;;;;0.50;0.50;;;14.60;99.90;;;;;;5015065;28;20541;-72
2022/09/10 01:01:44;;;;;;;6.57;0.50;;;14.80;99.90;;;;;;5014659;28;20493;-72
2022/09/10 01:04:10;;;;;;;0.30;0.30;;;14.60;99.90;;;;;;5014822;28;20403;-73
2022/09/10 01:06:37;;;;;;;0.30;0.30;;;14.80;99.90;;;;;;5014504;28;20771;-71
2022/09/10 01:09:04;;;;;;;0.40;0.40;;;14.80;99.90;;;;;;5014481;28;20849;-73
2022/09/10 01:11:38;;;;;;;0.40;0.40;;;14.60;99.90;;;;;;5014372;28;20411;-73
2022/09/10 01:14:04;;;;;;;0.47;0.37;;;14.70;99.90;;;;;;5014409;28;20413;-71
2022/09/10 01:17:08;;;;;;;0.30;0.30;;;14.80;99.90;;;;;;5014245;28;20464;-71
2022/09/10 01:19:51;;;;;;;0.63;0.63;;;14.80;99.90;;;;;;5014181;28;20658;-73
2022/09/10 01:22:41;;;;;;;0.50;0.50;;;14.60;99.90;;;;;;5014292;28;20413;-71
2022/09/10 01:25:27;;;;;;;0.30;0.30;;;14.70;99.90;;;;;;5014541;28;20817;-72
2022/09/10 01:27:56;;;;;;;0.30;0.30;;;14.80;99.90;;;;;;5014200;28;20436;-73
2022/09/10 01:30:27;;;;;;;0.30;0.30;;;14.80;99.90;;;;;;5014103;28;20394;-72
2022/09/10 01:33:12;;;;;;;0.40;0.40;;;14.70;99.90;;;;;;5014414;28;20498;-72
2022/09/10 01:35:54;;;;;;;0.40;0.40;;;15.00;99.90;;;;;;5014418;28;20404;-72
2022/09/10 01:38:25;;;;;;;0.30;0.30;;;14.40;99.90;;;;;;5014162;28;20465;-71
2022/09/10 01:40:53;;;;;;;0.40;0.40;;;14.60;99.90;;;;;;5013967;28;20493;-72
2022/09/10 01:43:21;;;;;;;0.30;0.30;;;14.70;99.90;;;;;;5012883;28;20438;-71
2022/09/10 01:46:05;;;;;;;0.40;0.40;;;15.30;99.90;;;;;;5014332;28;20416;-72
2022/09/10 01:49:01;;;;;;;0.30;0.30;;;14.60;99.90;;;;;;5014082;28;20431;-71
2022/09/10 01:51:54;;;;;;;0.50;0.50;;;14.70;99.90;;;;;;5013581;28;20410;-72
2022/09/10 01:54:27;;;;;;;0.30;0.30;;;14.90;99.90;;;;;;5013531;28;20510;-73
2022/09/10 01:57:26;;;;;;;0.30;0.30;;;14.90;99.90;;;;;;5014000;28;20446;-71
2022/09/10 02:00:05;;;;;;;0.30;0.30;;;14.70;99.90;;;;;;5013475;28;20449;-73
2022/09/10 02:02:57;;;;;;;0.40;0.40;;;14.80;99.90;;;;;;5013874;28;20405;-71
2022/09/10 02:05:25;;;;;;;0.30;0.30;;;14.60;99.90;;;;;;5014050;28;20481;-72
2022/09/10 02:07:57;;;;;;;0.30;0.30;;;14.60;99.90;;;;;;5013517;28;20835;-73
2022/09/10 02:10:24;;;;;;;1.37;1.00;;;;;;;;;;5013708;28;20417;-72
2022/09/10 02:12:50;;;;;;;0.60;0.60;;;;;;;;;;5013693;28;20457;-71
2022/09/10 02:15:17;;;;;;;0.30;0.30;;;14.70;99.90;;;;;;5013771;28;20423;-71
2022/09/10 02:17:45;;;;;;;0.70;0.63;;;14.70;99.90;;;;;;5013680;28;20445;-73
2022/09/10 02:20:15;;;;;;;0.40;0.40;;;14.50;99.90;;;;;;5013380;28;20468;-73
2022/09/10 02:22:48;;;;;;;0.30;0.30;;;14.40;99.90;;;;;;5013687;28;20803;-72
2022/09/10 02:25:15;;;;;;;0.30;0.30;;;14.60;99.90;;;;;;5013758;28;20842;-73
2022/09/10 02:27:42;;;;;;;0.50;0.50;;;14.60;99.90;;;;;;5015868;28;20574;-72
2022/09/10 02:30:10;;;;;;;0.40;0.40;;;14.40;99.90;;;;;;5016172;28;20429;-73
2022/09/10 02:32:36;;;;;;;0.30;0.30;;;;;;;;;;5017531;28;20418;-73
2022/09/10 02:35:02;;;;;;;0.50;0.50;;;;;;;;;;5017510;28;21023;-73
2022/09/10 02:37:28;;;;;;;0.40;0.40;;;15.00;99.90;;;;;;5017345;28;20431;-72
2022/09/10 02:39:54;;;;;;;0.40;0.40;;;14.70;99.90;;;;;;5017183;28;20970;-72
2022/09/10 02:42:21;;;;;;;0.53;0.40;;;;;;;;;;5017388;28;20183;-71
2022/09/10 02:44:47;;;;;;;0.30;0.30;;;;;;;;;;5017447;28;20485;-73
2022/09/10 02:47:12;;;;;;;0.40;0.40;;;14.80;99.90;;;;;;5017110;28;20425;-73
2022/09/10 02:49:39;;;;;;;0.30;0.30;;;;;;;;;;5017056;28;20410;-71
2022/09/10 02:52:05;;;;;;;0.83;0.83;;;14.60;99.90;;;;;;5017137;28;20176;-72
2022/09/10 02:54:31;;;;;;;0.67;0.67;;;;;;;;;;5017242;28;20429;-72
2022/09/10 02:56:57;;;;;;;1.80;0.60;;;14.90;99.90;;;;;;5017008;28;20817;-73
2022/09/10 02:59:23;;;;;;;0.40;0.40;;;;;;;;;;5016902;28;20461;-73
2022/09/10 03:01:49;;;;;;;0.30;0.30;;;14.70;99.90;;;;;;5016865;28;20175;-73
2022/09/10 03:04:16;;;;;;;0.37;0.37;;;;;;;;;;5016990;28;20408;-73
2022/09/10 03:06:42;;;;;;;0.30;0.30;;;;;;;;;;5017227;28;20402;-71
2022/09/10 03:09:08;;;;;;;0.40;0.40;;;14.70;99.90;;;;;;5016937;28;20576;-72
2022/09/10 03:11:39;;;;;;;0.30;0.30;;;14.60;99.90;;;;;;5016683;28;20429;-72
2022/09/10 03:14:07;;;;;;;0.40;0.40;;;14.60;99.90;;;;;;5016687;28;20509;-72
2022/09/10 03:16:34;;;;;;;0.30;0.30;;;14.30;99.90;;;;;;5017023;28;20787;-72
2022/09/10 03:18:59;;;;;;;0.40;0.40;;;14.60;99.90;;;;;;5016447;28;20462;-71
2022/09/10 03:21:25;;;;;;;0.50;0.50;;;;;;;;;;5016744;28;20825;-71
2022/09/10 03:23:52;;;;;;;0.30;0.30;;;14.60;99.90;;;;;;5016691;28;20624;-73
2022/09/10 03:26:19;;;;;;;0.40;0.40;;;14.50;99.90;;;;;;5016640;28;20403;-72
2022/09/10 03:28:46;;;;;;;0.30;0.30;;;;;;;;;;5015303;28;20841;-72
2022/09/10 03:31:12;;;;;;;0.30;0.30;;;;;;;;;;5016239;28;20406;-73
2022/09/10 03:33:39;;;;;;;0.40;0.40;;;14.40;99.90;;;;;;5015263;28;20764;-73
2022/09/10 03:36:06;;;;;;;0.30;0.30;;;14.40;99.90;;;;;;5015522;28;20922;-71
2022/09/10 03:38:32;;;;;;;0.50;0.50;;;14.20;99.90;;;;;;5015958;28;20505;-68
2022/09/10 03:41:01;;;;;;;0.43;0.43;;;;;;;;;;5015213;28;20403;-69
2022/09/10 03:43:27;;;;;;;0.30;0.30;;;15.40;99.90;;;;;;5014614;28;20426;-68
2022/09/10 03:45:54;;;;;;;0.30;0.30;;;;;;;;;;5014795;28;20454;-69
2022/09/10 03:48:20;;;;;;;0.40;0.40;;;16.30;99.90;;;;;;5014228;28;20195;-72
2022/09/10 03:50:46;;;;;;;0.60;0.60;;;15.70;99.90;;;;;;5015415;28;20408;-71
2022/09/10 03:53:14;;;;;;;0.30;0.30;;;15.70;99.90;;;;;;5014648;28;20420;-72
2022/09/10 03:55:42;;;;;;;0.30;0.30;;;15.40;99.90;;;;;;5015385;28;20420;-71
2022/09/10 03:58:08;;;;;;;0.30;0.30;;;;;;;;;;5015512;28;20437;-72
2022/09/10 04:00:34;;;;;;;0.30;0.30;;;15.20;99.90;;;;;;5015773;28;20406;-72
2022/09/10 04:03:01;;;;;;;0.30;0.30;;;15.20;99.90;;;;;;5016061;28;20407;-72
2022/09/10 04:05:27;;;;;;;0.70;0.63;;;;;;;;;;5015936;28;20413;-72
2022/09/10 04:07:57;;;;;;;0.30;0.30;;;14.80;99.90;;;;;;5015788;28;20434;-72
2022/09/10 04:10:26;;;;;;;0.30;0.30;;;14.80;99.90;;;;;;5015500;28;20421;-71
2022/09/10 04:12:52;;;;;;;0.67;0.67;;;14.80;99.90;;;;;;5015200;28;20768;-71
2022/09/10 04:15:20;;;;;;;0.30;0.30;;;14.50;99.90;;;;;;5014997;28;20426;-71
2022/09/10 04:17:50;;;;;;;0.90;0.90;;;14.50;99.90;;;;;;5014313;28;20961;-71
2022/09/10 04:20:16;;;;;;;0.30;0.30;;;14.30;99.90;;;;;;5013478;28;20458;-71
2022/09/10 04:22:42;;;;;;;0.30;0.30;;;14.50;99.90;;;;;;5014654;28;20413;-71
2022/09/10 04:25:08;;;;;;;0.40;0.40;;;14.50;99.90;;;;;;5013744;28;20426;-69
2022/09/10 04:27:33;;;;;;;0.30;0.30;;;14.20;99.90;;;;;;5014242;28;20198;-69
2022/09/10 04:29:59;;;;;;;0.40;0.40;;;;;;;;;;5015075;28;20221;-69
2022/09/10 04:32:25;;;;;;;0.70;0.70;;;14.00;99.90;;;;;;5014082;28;20178;-68
2022/09/10 04:34:51;;;;;;;0.30;0.30;;;14.20;99.90;;;;;;5015867;28;20410;-70
2022/09/10 04:37:17;;;;;;;0.40;0.40;;;14.20;99.90;;;;;;5015855;28;20522;-70
2022/09/10 04:39:43;;;;;;;0.40;0.40;;;14.40;99.90;;;;;;5015186;28;20203;-69
2022/09/10 04:42:09;;;;;;;0.30;0.30;;;14.20;99.90;;;;;;5015389;28;20425;-70
2022/09/10 04:44:35;;;;;;;0.30;0.30;;;14.30;99.90;;;;;;5015422;28;20179;-70
2022/09/10 04:47:00;;;;;;;0.30;0.30;;;14.30;99.90;;;;;;5015474;28;20517;-68
2022/09/10 04:49:26;;;;;;;0.30;0.30;;;14.20;99.90;;;;;;5013514;28;20171;-70
2022/09/10 04:51:51;;;;;;;0.30;0.30;;;14.00;99.90;;;;;;5015476;28;20182;-69
2022/09/10 04:54:18;;;;;;;0.40;0.40;;;14.10;99.90;;;;;;5015041;28;20233;-69
2022/09/10 04:56:46;;;;;;;0.30;0.30;;;14.10;99.90;;;;;;5015128;28;20172;-68
2022/09/10 04:59:12;;;;;;;0.40;0.40;;;14.00;99.90;;;;;;5015093;28;20844;-68
2022/09/10 05:01:37;;;;;;;1.70;1.60;;;14.00;99.90;;;;;;5015118;28;20414;-69
2022/09/10 05:04:03;;;;;;;0.67;0.67;;;;;;;;;;5015353;28;20259;-71
2022/09/10 05:06:29;;;;;;;0.40;0.40;;;;;;;;;;5015118;28;20659;-70
2022/09/10 05:08:55;;;;;;;0.40;0.40;;;14.20;99.90;;;;;;5014767;28;20437;-69
2022/09/10 05:11:22;;;;;;;0.60;0.60;;;;;;;;;;5014574;28;20409;-70
2022/09/10 05:13:48;;;;;;;0.30;0.30;;;14.60;99.90;;;;;;5014766;28;20183;-71
2022/09/10 05:16:14;;;;;;;0.30;0.30;;;;;;;;;;5014710;28;20419;-70
2022/09/10 05:18:40;;;;;;;3.30;0.70;;;14.20;99.90;;;;;;5013248;28;20218;-69
2022/09/10 05:21:05;;;;;;;1.33;0.77;;;14.40;99.90;;;;;;5014414;28;20498;-70
2022/09/10 05:23:31;;;;;;;0.30;0.30;;;;;;;;;;5014652;28;20897;-70
2022/09/10 05:25:58;;;;;;;0.30;0.30;;;14.40;99.90;;;;;;5014582;28;20180;-70
2022/09/10 05:28:24;;;;;;;0.30;0.30;;;14.50;99.90;;;;;;5014527;28;20508;-69
2022/09/10 05:30:49;;;;;;;0.30;0.30;;;14.50;99.90;;;;;;5014142;28;20842;-70
2022/09/10 05:33:15;;;;;;;0.40;0.40;;;14.70;99.90;;;;;;5014858;28;20177;-70
2022/09/10 05:35:41;;;;;;;0.40;0.40;;;14.60;99.90;;;;;;5013482;28;20216;-69
2022/09/10 05:38:10;;;;;;;0.40;0.40;;;14.80;99.90;;;;;;5012594;28;20225;-68
2022/09/10 05:40:36;;;;;;;0.30;0.30;;;14.70;99.90;;;;;;5013957;28;20766;-70
2022/09/10 05:43:01;;;;;;;0.50;0.50;;;14.50;99.90;;;;;;5014329;28;20415;-70
2022/09/10 05:45:27;;;;;;;0.30;0.30;;;14.40;99.90;;;;;;5014197;28;20182;-69
2022/09/10 05:47:53;;;;;;;0.73;0.70;;;;;;;;;;5013712;28;20191;-69
2022/09/10 05:50:18;;;;;;;0.60;0.60;;;14.60;99.90;;;;;;5013762;28;20632;-70
2022/09/10 05:52:45;;;;;;;0.40;0.40;;;14.50;99.90;;;;;;5013826;28;20418;-68
2022/09/10 05:55:11;;;;;;;1.80;0.50;;;14.50;99.90;;;;;;5014008;28;20172;-69
2022/09/10 05:57:39;;;;;;;0.30;0.30;;;;;;;;;;5013940;28;20475;-69
2022/09/10 06:00:07;;;;;;;0.60;0.60;;;14.40;99.90;;;;;;5013731;28;20539;-70
2022/09/10 06:02:33;;;;;;;0.40;0.40;;;14.60;99.90;;;;;;5013845;28;20402;-69
2022/09/10 06:04:59;;;;;;;1.53;1.43;;;14.90;99.90;;;;;;5014028;28;20399;-70
2022/09/10 06:07:29;;;;;;;0.30;0.30;;;14.70;99.90;;;;;;5013701;28;20443;-69
2022/09/10 06:09:56;;;;;;;1.23;1.13;;;14.70;99.90;;;;;;5013602;28;20448;-70
2022/09/10 06:12:22;;;;;;;0.70;0.50;;;14.70;99.90;;;;;;5013790;28;20489;-69
2022/09/10 06:14:48;;;;;;;0.40;0.40;;;14.80;99.90;;;;;;5013553;28;20502;-68
2022/09/10 06:17:16;;;;;;;0.40;0.40;;;15.30;99.90;;;;;;5013746;28;20517;-69
2022/09/10 06:19:43;;;;;;;0.30;0.30;;;14.90;99.90;;;;;;5013430;28;20481;-69
2022/09/10 06:22:09;;;;;;;0.30;0.30;;;14.90;99.90;;;;;;5013582;28;20470;-69
2022/09/10 06:24:36;;;;;;;0.40;0.40;;;14.90;99.90;;;;;;5013718;28;20771;-69
2022/09/10 06:27:02;;;;;;;0.40;0.40;;;15.20;99.90;;;;;;5013635;28;20408;-69
2022/09/10 06:29:28;;;;;;;0.40;0.40;;;15.10;99.90;;;;;;5013721;28;20410;-70
2022/09/10 06:31:54;;;;;;;0.50;0.50;;;;;;;;;;5013550;28;20499;-69
2022/09/10 06:34:20;;;;;;;0.40;0.40;;;14.80;99.90;;;;;;5013182;28;20502;-69
2022/09/10 06:36:48;;;;;;;0.30;0.30;;;14.80;99.90;;;;;;5012306;28;20509;-70
2022/09/10 06:39:14;;;;;;;0.40;0.40;;;14.80;99.90;;;;;;5013587;28;20470;-68
2022/09/10 06:41:40;;;;;;;0.80;0.80;;;15.00;99.90;;;;;;5013801;28;20399;-70
2022/09/10 06:44:05;;;;;;;0.40;0.40;;;14.70;99.90;;;;;;5010830;28;20438;-70
2022/09/10 06:46:31;;;;;;;2.43;0.93;;;;;;;;;;5012265;28;20425;-72
2022/09/10 06:48:59;;;;;;;0.30;0.30;;;14.70;99.90;;;;;;5012307;28;20191;-71
2022/09/10 06:51:26;;;;;;;1.40;1.37;;;;;;;;;;5013080;28;20427;-71
2022/09/10 06:53:51;;;;;;;0.60;0.60;;;14.90;99.90;;;;;;5013077;28;20908;-69
2022/09/10 06:56:17;;;;;;;0.40;0.40;;;;;;;;;;5013496;28;20417;-70
2022/09/10 06:58:43;;;;;;;0.50;0.50;;;14.80;99.90;;;;;;5013113;28;20322;-69
2022/09/10 07:01:13;;;;;;;0.30;0.30;;;14.80;99.90;;;;;;5013163;28;20505;-69
2022/09/10 07:03:42;;;;;;;0.30;0.30;;;14.70;99.90;;;;;;5013538;28;20182;-68
2022/09/10 07:06:10;;;;;;;0.50;0.50;;;15.00;99.90;;;;;;5013279;28;20411;-70
2022/09/10 07:08:36;;;;;;;0.40;0.40;;;15.00;99.90;;;;;;5013072;28;20435;-70
2022/09/10 07:11:06;;;;;;;0.80;0.50;;;15.10;99.90;;;;;;5012946;28;20419;-69
2022/09/10 07:13:33;;;;;;;0.40;0.40;;;15.10;99.90;;;;;;5015031;28;20415;-70
2022/09/10 07:15:58;;;;;;;0.40;0.40;;;15.10;99.90;;;;;;5016717;28;20987;-68
2022/09/10 07:18:25;;;;;;;0.60;0.60;;;15.20;99.90;;;;;;5016586;28;20429;-70
2022/09/10 07:20:51;;;;;;;0.37;0.37;;;15.30;99.90;;;;;;5016625;28;20499;-70
2022/09/10 07:23:19;;;;;;;0.43;0.43;;;15.50;99.90;;;;;;5016741;28;20814;-69
2022/09/10 07:25:46;;;;;;;0.30;0.30;;;15.20;99.90;;;;;;5016480;28;20923;-70
2022/09/10 07:28:15;;;;;;;0.40;0.40;;;15.10;99.90;;;;;;5016679;28;20515;-70
2022/09/10 07:30:42;;;;;;;0.30;0.30;;;15.20;99.90;;;;;;5016288;28;20405;-68
2022/09/10 07:33:09;;;;;;;0.30;0.30;;;14.90;99.90;;;;;;5016500;28;20398;-70
2022/09/10 07:35:36;;;;;;;0.30;0.30;;;15.10;99.90;;;;;;5016493;28;20459;-68
2022/09/10 07:38:12;;;;;;;0.30;0.30;;;15.00;99.90;;;;;;5016395;28;20821;-70
2022/09/10 07:40:39;;;;;;;0.30;0.30;;;14.90;99.90;;;;;;5016101;28;20412;-70
2022/09/10 07:43:05;;;;;;;0.30;0.30;;;15.20;99.90;;;;;;5016235;28;20446;-70
2022/09/10 07:45:31;;;;;;;0.70;0.70;;;15.20;99.90;;;;;;5016416;28;20407;-68
2022/09/10 07:47:57;;;;;;;0.93;0.93;;;15.30;99.90;;;;;;5014823;28;20446;-70
2022/09/10 07:50:23;;;;;;;0.57;0.57;;;15.00;99.90;;;;;;5016025;28;20482;-69
2022/09/10 07:52:48;;;;;;;0.80;0.70;;;15.00;99.90;;;;;;5016188;28;20191;-70
2022/09/10 07:55:14;;;;;;;0.40;0.40;;;;;;;;;;5016181;28;20163;-69
2022/09/10 07:57:40;;;;;;;1.60;1.57;;;15.50;99.90;;;;;;5015914;28;20183;-69
2022/09/10 08:00:13;;;;;;;4.50;1.40;;;15.00;99.90;;;;;;5015607;28;20943;-68
2022/09/10 08:02:40;;;;;;;5.20;2.80;;;14.80;99.90;;;;;;5015952;28;20176;-69
2022/09/10 08:05:07;;;;;;;3.20;2.07;;;15.10;99.90;;;;;;5015974;28;20400;-69
2022/09/10 08:07:33;;;;;;;5.50;5.00;;;14.90;99.90;;;;;;5015853;28;20422;-71
2022/09/10 08:09:59;;;;;;;2.20;1.70;;;14.80;99.90;;;;;;5015808;28;21026;-71
2022/09/10 08:12:24;;;;;;;1.70;1.60;;;15.30;99.90;;;;;;5015674;28;20254;-70
2022/09/10 08:14:51;;;;;;;0.70;0.70;;;;;;;;;;5015484;28;20190;-70
2022/09/10 08:17:17;;;;;;;1.50;1.40;;;15.60;99.90;;;;;;5014660;28;20212;-70
2022/09/10 08:19:43;;;;;;;2.57;2.37;;;15.40;99.90;;;;;;5014932;28;20995;-70
2022/09/10 08:22:09;;;;;;;0.30;0.30;;;15.50;99.90;;;;;;5015101;28;20419;-70
2022/09/10 08:24:35;;;;;;;0.70;0.70;;;15.40;99.90;;;;;;5014645;28;20625;-69
2022/09/10 08:27:01;;;;;;;0.40;0.40;;;16.30;99.90;;;;;;5015510;28;20403;-70
2022/09/10 08:29:27;;;;;;;0.50;0.50;;;;;;;;;;5015524;28;20182;-70
2022/09/10 08:31:53;;;;;;;0.53;0.53;;;15.30;99.90;;;;;;5015319;28;20165;-69
2022/09/10 08:34:19;;;;;;;0.57;0.57;;;15.50;99.90;;;;;;5015492;28;20411;-70
2022/09/10 08:36:45;;;;;;;0.30;0.30;;;;;;;;;;5015398;28;20180;-71
2022/09/10 08:39:11;;;;;;;0.70;0.70;;;15.20;99.90;;;;;;5015104;28;20311;-69
2022/09/10 08:41:37;;;;;;;0.60;0.60;;;15.30;99.90;;;;;;5015019;28;20403;-70
2022/09/10 08:44:12;;;;;;;0.30;0.30;;;15.20;99.90;;;;;;5015181;28;20945;-70
2022/09/10 08:47:13;;;;;;;7.40;3.30;;;15.30;99.90;;;;;;5015332;28;20224;-70
2022/09/10 08:49:48;;;;;;;0.40;0.40;;;15.10;99.90;;;;;;5014864;28;20810;-69
2022/09/10 08:52:23;;;;;;;0.50;0.50;;;15.30;99.90;;;;;;5015188;28;20398;-70
2022/09/10 08:55:17;;;;;;;0.60;0.60;;;15.30;99.90;;;;;;5015197;28;20499;-69
2022/09/10 08:57:49;;;;;;;0.30;0.30;;;15.00;99.90;;;;;;5013748;28;20439;-70
2022/09/10 09:00:22;;;;;;;0.30;0.30;;;15.20;99.90;;;;;;5015041;28;20984;-70
2022/09/10 09:03:08;;;;;;;0.97;0.97;;;15.10;99.90;;;;;;5014874;28;20402;-71
2022/09/10 09:05:56;;;;;;;1.60;1.50;;;15.10;99.90;;;;;;5015007;28;20415;-69
2022/09/10 09:08:26;;;;;;;0.30;0.30;;;15.00;99.90;;;;;;5014773;28;20939;-70
2022/09/10 09:11:06;;;;;;;0.30;0.30;;;15.20;99.90;;;;;;5014614;28;20482;-70
2022/09/10 09:14:16;;;;;;;0.30;0.30;;;15.10;99.90;;;;;;5014844;28;20739;-70
2022/09/10 09:17:20;;;;;;;0.30;0.30;;;15.30;99.90;;;;;;4952405;28;20424;-70
2022/09/10 09:19:57;;;;;;;0.40;0.40;;;15.60;99.90;;;;;;5010599;28;21100;-71
2022/09/10 09:22:39;;;;;;;0.30;0.30;;;14.90;99.90;;;;;;5014976;28;20983;-69
2022/09/10 09:25:22;;;;;;;0.50;0.50;;;14.90;99.90;;;;;;5013138;28;20405;-70
2022/09/10 09:27:53;;;;;;;0.30;0.30;;;15.20;99.90;;;;;;5014201;28;20516;-69
2022/09/10 09:30:40;;;;;;;0.40;0.40;;;15.10;99.90;;;;;;5013091;28;20775;-69
2022/09/10 09:33:15;;;;;;;0.60;0.60;;;15.60;99.90;;;;;;5014658;28;20423;-69
2022/09/10 09:35:56;;;;;;;0.30;0.30;;;15.50;99.90;;;;;;5012808;28;20406;-70
2022/09/10 09:38:31;;;;;;;0.50;0.50;;;15.60;99.90;;;;;;5014440;28;20987;-69
2022/09/10 09:41:06;;;;;;;0.30;0.30;;;16.00;99.90;;;;;;5014044;28;20406;-69
2022/09/10 09:43:57;;;;;;;0.40;0.40;;;16.10;99.90;;;;;;5014781;28;20397;-69
2022/09/10 09:46:23;;;;;;;0.40;0.40;;;16.10;99.90;;;;;;5014427;28;20399;-69
2022/09/10 09:48:53;;;;;;;0.30;0.30;;;15.90;99.90;;;;;;5013905;28;20432;-68
2022/09/10 09:51:20;;;;;;;0.40;0.40;;;16.40;99.90;;;;;;5014364;28;20174;-68
2022/09/10 09:53:48;;;;;;;0.40;0.40;;;16.40;99.90;;;;;;5014600;28;20437;-69
2022/09/10 09:56:41;;;;;;;0.60;0.43;;;16.20;99.90;;;;;;5014186;28;20726;-69
2022/09/10 09:59:31;;;;;;;0.40;0.40;;;16.20;99.80;;;;;;5014130;28;20461;-68
2022/09/10 10:02:12;;;;;;;0.40;0.40;;;16.20;99.90;;;;;;5002768;28;20422;-69
2022/09/10 10:04:41;;;;;;;0.40;0.40;;;16.10;99.90;;;;;;5013803;28;20915;-69
2022/09/10 10:07:07;;;;;;;0.40;0.40;;;15.80;99.90;;;;;;5012865;28;20399;-69
2022/09/10 10:09:42;;;;;;;0.70;0.70;;;16.20;99.90;;;;;;5012448;28;20467;-69
2022/09/10 10:12:21;;;;;;;0.37;0.37;;;16.20;99.90;;;;;;5013834;28;20591;-68
2022/09/10 10:14:47;;;;;;;0.30;0.30;;;16.30;99.90;;;;;;5013527;28;20434;-69
2022/09/10 10:17:38;;;;;;;0.30;0.30;;;16.40;99.90;;;;;;5013579;28;20560;-68
2022/09/10 10:20:15;;;;;;;1.37;0.80;;;16.40;99.90;;;;;;5013592;28;20521;-69
2022/09/10 10:22:44;;;;;;;0.40;0.40;;;16.50;99.90;;;;;;5013873;28;20421;-69
2022/09/10 10:25:32;;;;;;;0.30;0.30;;;17.00;99.90;;;;;;5013751;28;20395;-69
2022/09/10 10:27:59;;;;;;;0.30;0.30;;;16.40;99.90;;;;;;5013459;28;20422;-70
2022/09/10 10:30:27;;;;;;;0.40;0.40;;;16.60;99.50;;;;;;5013388;28;20418;-70
2022/09/10 10:33:01;;;;;;;0.40;0.40;;;16.40;99.90;;;;;;5013621;28;20407;-69
2022/09/10 10:36:02;;;;;;;0.40;0.40;;;16.20;99.90;;;;;;5013666;28;20489;-68
2022/09/10 10:38:32;;;;;;;0.40;0.40;;;16.20;99.90;;;;;;5013405;28;20473;-69
2022/09/10 10:41:15;;;;;;;0.50;0.50;;;16.90;99.90;;;;;;5013400;28;20409;-69
2022/09/10 10:43:56;;;;;;;0.30;0.30;;;16.00;99.90;;;;;;5013408;28;20394;-69
2022/09/10 10:46:33;;;;;;;0.30;0.30;;;16.90;99.90;;;;;;5013427;28;20405;-69
2022/09/10 10:49:08;;;;;;;0.73;0.73;;;17.30;99.90;;;;;;5015663;28;20433;-69
2022/09/10 10:51:49;;;;;;;0.40;0.40;;;17.10;99.90;;;;;;5017040;28;20414;-69
2022/09/10 10:54:51;;;;;;;0.30;0.30;;;17.40;99.90;;;;;;5017416;28;20402;-71
2022/09/10 10:57:54;;;;;;;0.40;0.40;;;17.90;99.40;;;;;;5017122;28;20414;-68
2022/09/10 11:00:20;;;;;;;12.37;0.87;;;;;;;;;;5016916;28;20858;-69
2022/09/10 11:02:58;;;;;;;0.40;0.40;;;18.20;99.90;;;;;;5017121;28;20394;-69
2022/09/10 11:05:32;;;;;;;0.37;0.37;;;18.20;98.70;;;;;;5016970;28;20902;-68
2022/09/10 11:08:04;;;;;;;0.70;0.70;;;18.50;99.20;;;;;;5016979;28;20430;-69
2022/09/10 11:10:55;;;;;;;0.40;0.40;;;18.60;99.90;;;;;;5015887;28;20964;-68
2022/09/10 11:13:24;;;;;;;0.40;0.40;;;18.70;98.40;;;;;;4981714;28;20895;-69
2022/09/10 11:16:03;;;;;;;0.50;0.50;;;18.60;99.90;;;;;;5016030;28;20429;-68
2022/09/10 11:18:43;;;;;;;0.83;0.83;;;19.00;96.90;;;;;;5014537;28;20436;-68
2022/09/10 11:21:20;;;;;;;1.27;0.43;;;18.80;97.80;;;;;;5016678;28;20499;-70
2022/09/10 11:24:02;;;;;;;0.30;0.30;;;19.30;99.90;;;;;;5014974;28;20901;-69
2022/09/10 11:26:58;;;;;;;0.50;0.50;;;19.10;99.90;;;;;;5016681;28;20441;-69
2022/09/10 11:29:57;;;;;;;2.57;0.50;;;19.40;99.90;;;;;;5015731;28;20767;-69
2022/09/10 11:32:28;;;;;;;0.80;0.80;;;19.30;99.90;;;;;;5016664;28;20410;-68
2022/09/10 11:35:03;;;;;;;0.30;0.30;;;19.10;99.90;;;;;;5016436;28;20408;-69
2022/09/10 11:37:49;;;;;;;0.40;0.40;;;18.60;99.90;;;;;;5015508;28;20436;-69
2022/09/10 11:40:45;;;;;;;0.40;0.40;;;18.50;99.90;;;;;;5014247;28;20461;-69
2022/09/10 11:43:27;;;;;;;0.40;0.40;;;18.50;99.90;;;;;;4997878;28;20468;-70
2022/09/10 11:46:01;;;;;;;0.40;0.40;;;18.50;99.90;;;;;;5016373;28;20407;-68
2022/09/10 11:48:40;;;;;;;0.30;0.30;;;19.00;99.90;;;;;;5016323;28;20800;-69
2022/09/10 11:51:32;;;;;;;0.40;0.40;;;19.40;99.90;;;;;;5016097;28;20405;-69
2022/09/10 11:54:00;;;;;;;0.60;0.60;;;19.30;96.70;;;;;;5006092;28;20905;-69
2022/09/10 11:56:52;;;;;;;0.30;0.30;;;19.50;97.30;;;;;;5014721;28;20793;-70
2022/09/10 11:59:42;;;;;;;0.40;0.40;;;19.10;99.90;;;;;;4997496;28;20502;-70
2022/09/10 12:02:37;;;;;;;0.30;0.30;;;18.90;99.90;;;;;;5015819;28;20397;-69
2022/09/10 12:05:36;;;;;;;0.30;0.30;;;18.90;96.00;;;;;;5015957;28;20404;-69
2022/09/10 12:08:02;;;;;;;0.30;0.30;;;18.50;99.90;;;;;;5016132;28;20436;-70
2022/09/10 12:10:52;;;;;;;0.40;0.40;;;19.70;99.90;;;;;;5015683;28;20912;-69
2022/09/10 12:13:21;;;;;;;1.43;1.33;;;18.80;99.90;;;;;;5015631;28;20407;-67
2022/09/10 12:16:01;;;;;;;0.40;0.40;;;18.40;99.90;;;;;;5015559;28;20442;-69
2022/09/10 12:18:35;;;;;;;0.30;0.30;;;18.60;99.90;;;;;;5015609;28;20509;-70
2022/09/10 12:21:13;;;;;;;0.30;0.30;;;18.70;97.70;;;;;;5015782;28;20530;-71
2022/09/10 12:23:39;;;;;;;0.40;0.40;;;;;;;;;;5015725;28;20809;-70
2022/09/10 12:26:05;;;;;;;0.30;0.30;;;18.60;98.20;;;;;;5015579;28;20398;-69
2022/09/10 12:28:49;;;;;;;0.40;0.40;;;17.90;99.90;;;;;;5014396;28;20505;-69
2022/09/10 12:31:18;;;;;;;0.40;0.40;;;18.30;97.60;;;;;;5015668;28;20733;-70
2022/09/10 12:33:44;;;;;;;0.30;0.30;;;18.10;98.60;;;;;;5015143;28;20430;-70
2022/09/10 12:36:13;;;;;;;0.57;0.57;;;17.80;99.90;;;;;;5013859;28;20423;-69
2022/09/10 12:38:56;;;;;;;0.50;0.50;;;18.10;99.90;;;;;;5013664;28;20716;-69
2022/09/10 12:41:22;;;;;;;0.40;0.40;;;18.10;98.70;;;;;;5015099;28;20415;-70
2022/09/10 12:43:47;;;;;;;0.70;0.60;;;18.20;98.80;;;;;;5015363;28;20853;-70
2022/09/10 12:46:13;;;;;;;0.40;0.40;;;18.30;99.90;;;;;;5015241;28;20251;-69
2022/09/10 12:48:44;;;;;;;0.40;0.40;;;18.40;99.10;;;;;;5014955;28;20655;-69
2022/09/10 12:51:31;;;;;;;0.50;0.50;;;18.80;99.90;;;;;;5014861;28;20166;-70
2022/09/10 12:54:00;;;;;;;0.40;0.40;;;18.60;99.90;;;;;;5015032;28;20413;-70
2022/09/10 12:56:41;;;;;;;0.63;0.60;;;18.70;98.40;;;;;;5015118;28;20412;-69
2022/09/10 12:59:24;;;;;;;0.40;0.40;;;18.60;99.00;;;;;;5013855;28;20461;-69
2022/09/10 13:01:50;;;;;;;0.40;0.40;;;;;;;;;;5014086;28;20408;-69
2022/09/10 13:04:27;;;;;;;0.50;0.50;;;17.90;99.90;;;;;;5012537;28;20411;-71
2022/09/10 13:07:00;;;;;;;0.30;0.30;;;17.50;98.10;;;;;;5013994;28;20410;-70
2022/09/10 13:09:54;;;;;;;0.83;0.83;;;17.20;99.90;;;;;;5014475;28;20400;-71
2022/09/10 13:12:40;;;;;;;0.67;0.40;;;17.70;99.90;;;;;;5014679;28;20412;-71
2022/09/10 13:15:15;;;;;;;0.30;0.30;;;17.80;99.90;;;;;;5014620;28;20496;-71
2022/09/10 13:17:46;;;;;;;0.30;0.30;;;18.40;99.90;;;;;;5015207;28;20435;-71
2022/09/10 13:20:20;;;;;;;0.47;0.47;;;18.40;98.90;;;;;;5014860;28;20482;-70
2022/09/10 13:23:02;;;;;;;0.40;0.40;;;18.40;98.90;;;;;;5014606;28;20826;-71